»·PEaware :: ASA73 KMFR-KDEN

ASA73 :: KMFR-KDEN

FLIGHT INFORMATION

Flight Status: Arrived
Operator:
Alaska Airlines
More flights by this operator :: More flights under this callsign
Pilot: Andre N. (13929)
Aircraft: BOEING 737-800
(B738)
More flights by this aircraft type
Origin: KMFR Rogue Valley Intl-Medford
United States
Destination: KDEN Denver Intl
United States
More flights between these airports :: More routes between these airports
Route: +JKSN1 OED V122 CEGAN RUFUS GOWZE FASTE Q124 WAATS CHE FRNCH3
File this flight plan on PilotEdge
Remarks:
Altitude:
(Current/Filed)
37,000ft
Speed:
(Current/Filed)
350kts
Departed: 15-Feb-18 10:54 AM
Arrived: 15-Feb-18 12:58 PM
Distance/Time
Traveled:
835nm/2:03
Distance/Time
To Go:
Arrived

Flight Plot

Page will automatically refresh every two minutes.

Flight plan parsing failed; only flown route is shown


Map Options




Map Legend


Flown Route
Filed Route
Departure Airport
Arrival Airport
Navaid (VOR, NDB)
Fix

Horizontal Profiles

Position Reports

Time Latitude Longitude Heading Altitude Ground
Speed
15-Feb-18 10:32 42.369392 -122.873677 247 1341ft 0kts
15-Feb-18 10:33 42.369392 -122.873677 247 1341ft 0kts
15-Feb-18 10:34 42.369392 -122.873677 247 1341ft 0kts
15-Feb-18 10:35 42.369392 -122.873677 247 1341ft 0kts
15-Feb-18 10:36 42.369392 -122.873677 247 1341ft 0kts
15-Feb-18 10:37 42.369392 -122.873677 247 1341ft 0kts
15-Feb-18 10:38 42.369392 -122.873677 247 1341ft 0kts
15-Feb-18 10:39 42.369392 -122.873677 247 1341ft 0kts
15-Feb-18 10:40 42.369392 -122.873677 247 1341ft 0kts
15-Feb-18 10:41 42.369392 -122.873677 247 1341ft 0kts
15-Feb-18 10:42 42.369392 -122.873677 247 1341ft 0kts
15-Feb-18 10:43 42.369392 -122.873677 247 1341ft 0kts
15-Feb-18 10:44 42.369392 -122.873677 247 1341ft 0kts
15-Feb-18 10:45 42.369392 -122.873677 247 1341ft 0kts
15-Feb-18 10:46 42.369392 -122.873677 247 1341ft 0kts
15-Feb-18 10:47 42.369392 -122.873677 247 1341ft 0kts
15-Feb-18 10:48 42.369392 -122.873677 247 1341ft 0kts
15-Feb-18 10:49 42.369392 -122.873677 247 1341ft 0kts
15-Feb-18 10:50 42.369392 -122.873677 247 1341ft 0kts
15-Feb-18 10:51 42.369392 -122.873677 247 1341ft 0kts
15-Feb-18 10:52 42.369540 -122.873164 268 1341ft 2kts
15-Feb-18 10:53 42.369292 -122.872710 338 1341ft 0kts
15-Feb-18 10:54 42.369292 -122.872710 338 1341ft 0kts
15-Feb-18 10:55 42.369356 -122.872738 346 1341ft 2kts
15-Feb-18 10:56 42.370951 -122.872742 338 1341ft 12kts
15-Feb-18 10:57 42.375553 -122.875157 338 1341ft 18kts
15-Feb-18 10:58 42.379440 -122.877255 338 1341ft 16kts
15-Feb-18 10:59 42.384790 -122.880083 339 1341ft 12kts
15-Feb-18 11:00 42.385446 -122.880382 357 1341ft 0kts
15-Feb-18 11:01 42.380708 -122.876307 158 1341ft 110kts
15-Feb-18 11:02 42.344501 -122.857014 157 3590ft 135kts
15-Feb-18 11:03 42.306252 -122.869932 253 5077ft 189kts
15-Feb-18 11:04 42.334055 -122.910462 15 7493ft 181kts
15-Feb-18 11:05 42.381525 -122.896685 335 9793ft 183kts
15-Feb-18 11:06 42.422364 -122.937148 330 12040ft 183kts
15-Feb-18 11:07 42.466357 -122.915493 52 13506ft 242kts
15-Feb-18 11:08 42.452203 -122.811449 123 15005ft 351kts
15-Feb-18 11:09 42.400066 -122.699259 112 17966ft 366kts
15-Feb-18 11:10 42.353845 -122.581063 110 20677ft 383kts
15-Feb-18 11:11 42.304118 -122.451481 109 23324ft 400kts
15-Feb-18 11:12 42.254309 -122.316781 107 25688ft 416kts
15-Feb-18 11:13 42.205637 -122.180281 107 27847ft 433kts
15-Feb-18 11:14 42.153221 -122.035563 106 30015ft 445kts
15-Feb-18 11:15 42.104004 -121.899674 105 32279ft 442kts
15-Feb-18 11:16 42.050937 -121.752612 104 34475ft 438kts
15-Feb-18 11:17 42.001718 -121.615670 104 36247ft 436kts
15-Feb-18 11:18 41.952759 -121.478893 104 37401ft 443kts
15-Feb-18 11:19 41.898212 -121.325812 105 37431ft 478kts
15-Feb-18 11:20 41.843505 -121.172188 105 37402ft 481kts
15-Feb-18 11:21 41.788967 -121.018273 104 37400ft 485kts
15-Feb-18 11:22 41.732044 -120.856920 104 37402ft 498kts
15-Feb-18 11:23 41.676599 -120.699328 104 38199ft 499kts
15-Feb-18 11:24 41.618710 -120.534054 104 39384ft 494kts
15-Feb-18 11:25 41.563278 -120.375093 104 39408ft 495kts
15-Feb-18 11:26 41.507000 -120.213002 104 39406ft 495kts
15-Feb-18 11:27 41.449908 -120.047939 104 39412ft 494kts
15-Feb-18 11:28 41.412405 -119.878771 90 39411ft 477kts
15-Feb-18 11:29 41.382793 -119.707721 91 39417ft 475kts
15-Feb-18 11:30 41.352704 -119.536103 91 39422ft 477kts
15-Feb-18 11:31 41.323032 -119.365959 91 39401ft 461kts
15-Feb-18 11:32 41.294507 -119.200305 91 39399ft 466kts
15-Feb-18 11:33 41.268302 -119.047381 91 39388ft 467kts
15-Feb-18 11:34 41.239886 -118.879676 93 39393ft 469kts
15-Feb-18 11:35 41.211375 -118.710705 94 39386ft 470kts
15-Feb-18 11:36 41.183133 -118.541637 94 39392ft 470kts
15-Feb-18 11:37 41.155185 -118.372777 94 39391ft 469kts
15-Feb-18 11:38 41.131057 -118.204404 90 39387ft 466kts
15-Feb-18 11:39 41.110124 -118.034918 92 39390ft 468kts
15-Feb-18 11:40 41.088092 -117.865365 92 39389ft 472kts
15-Feb-18 11:41 41.065914 -117.693625 93 39393ft 473kts
15-Feb-18 11:42 41.044032 -117.522356 93 39393ft 474kts
15-Feb-18 11:43 41.022249 -117.349838 94 39391ft 475kts
15-Feb-18 11:44 41.000941 -117.178723 95 39388ft 477kts
15-Feb-18 11:45 40.979644 -117.005665 96 39388ft 484kts
15-Feb-18 11:46 40.958735 -116.833914 98 39389ft 493kts
15-Feb-18 11:47 40.937254 -116.655512 97 39396ft 499kts
15-Feb-18 11:48 40.915657 -116.473532 97 39394ft 503kts
15-Feb-18 11:49 40.894540 -116.293154 97 39351ft 503kts
15-Feb-18 11:50 40.873676 -116.112230 97 39299ft 502kts
15-Feb-18 11:51 40.852936 -115.929988 97 39300ft 503kts
15-Feb-18 11:52 40.832505 -115.748398 97 39301ft 502kts
15-Feb-18 11:53 40.812373 -115.566645 96 39301ft 502kts
15-Feb-18 11:54 40.792491 -115.384658 96 39304ft 502kts
15-Feb-18 11:55 40.773148 -115.204365 96 39298ft 502kts
15-Feb-18 11:56 40.753801 -115.021596 98 39300ft 511kts
15-Feb-18 11:57 40.734363 -114.835869 99 39310ft 513kts
15-Feb-18 11:58 40.715330 -114.651069 98 39306ft 514kts
15-Feb-18 11:59 40.700048 -114.464973 87 39306ft 514kts
15-Feb-18 12:00 40.707485 -114.280793 87 39297ft 515kts
15-Feb-18 12:01 40.713780 -114.099581 87 39297ft 515kts
15-Feb-18 12:02 40.720408 -113.912656 87 39301ft 515kts
15-Feb-18 12:03 40.726627 -113.726256 90 39301ft 515kts
15-Feb-18 12:04 40.724775 -113.539984 90 39304ft 515kts
15-Feb-18 12:05 40.723183 -113.357756 90 39288ft 516kts
15-Feb-18 12:06 40.721954 -113.176625 91 39260ft 515kts
15-Feb-18 12:07 40.721186 -113.045722 91 39262ft 515kts
15-Feb-18 12:08 40.720388 -112.861829 93 39284ft 533kts
15-Feb-18 12:09 40.719805 -112.672922 93 39291ft 538kts
15-Feb-18 12:10 40.718717 -112.480178 96 39295ft 536kts
15-Feb-18 12:11 40.709824 -112.303786 99 39281ft 533kts
15-Feb-18 12:12 40.699908 -112.132924 99 39258ft 534kts
15-Feb-18 12:13 40.689367 -111.949235 99 39248ft 534kts
15-Feb-18 12:14 40.679892 -111.779889 99 39251ft 534kts
15-Feb-18 12:15 40.669541 -111.589530 98 39252ft 534kts
15-Feb-18 12:16 40.659720 -111.403407 98 39248ft 535kts
15-Feb-18 12:17 40.650713 -111.225684 98 39180ft 534kts
15-Feb-18 12:18 40.641721 -111.043768 99 39119ft 539kts
15-Feb-18 12:19 40.632367 -110.848517 101 39125ft 552kts
15-Feb-18 12:20 40.623730 -110.662427 100 39137ft 552kts
15-Feb-18 12:21 40.614783 -110.462044 100 39148ft 552kts
15-Feb-18 12:22 40.606346 -110.263705 100 39116ft 552kts
15-Feb-18 12:23 40.598188 -110.064540 100 39100ft 552kts
15-Feb-18 12:24 40.590255 -109.863411 100 39104ft 552kts
15-Feb-18 12:25 40.582684 -109.662957 99 39108ft 553kts
15-Feb-18 12:26 40.575477 -109.462461 99 39112ft 553kts
15-Feb-18 12:27 40.568840 -109.266574 100 39097ft 551kts
15-Feb-18 12:28 40.562593 -109.073680 100 39101ft 562kts
15-Feb-18 12:29 40.556248 -108.867891 101 39100ft 573kts
15-Feb-18 12:30 40.551217 -108.696154 101 39109ft 572kts
15-Feb-18 12:31 40.545506 -108.489443 100 39103ft 572kts
15-Feb-18 12:32 40.539628 -108.256704 101 39082ft 566kts
15-Feb-18 12:33 40.536315 -108.111116 102 38778ft 516kts
15-Feb-18 12:34 40.530891 -107.881781 100 37293ft 580kts
15-Feb-18 12:35 40.527428 -107.709857 99 36073ft 578kts
15-Feb-18 12:36 40.523472 -107.503061 99 35194ft 581kts
15-Feb-18 12:37 40.520367 -107.296580 95 34373ft 587kts
15-Feb-18 12:38 40.538039 -107.107064 104 33557ft 577kts
15-Feb-18 12:39 40.521116 -106.903597 105 32177ft 580kts
15-Feb-18 12:40 40.502929 -106.713235 104 30627ft 585kts
15-Feb-18 12:41 40.483571 -106.512866 103 28871ft 548kts
15-Feb-18 12:42 40.464935 -106.322191 101 27172ft 523kts
15-Feb-18 12:43 40.455145 -106.159494 98 25644ft 483kts
15-Feb-18 12:44 40.445434 -106.003045 97 24119ft 449kts
15-Feb-18 12:45 40.422676 -105.850242 105 22711ft 425kts
15-Feb-18 12:46 40.399019 -105.701541 104 21341ft 412kts
15-Feb-18 12:47 40.376792 -105.562167 103 20018ft 397kts
15-Feb-18 12:48 40.348359 -105.426292 127 18650ft 377kts
15-Feb-18 12:49 40.287731 -105.328190 131 17586ft 366kts
15-Feb-18 12:50 40.226742 -105.225425 137 16488ft 354kts
15-Feb-18 12:51 40.161686 -105.131732 132 15481ft 345kts
15-Feb-18 12:52 40.101234 -105.036844 132 14633ft 335kts
15-Feb-18 12:53 40.042671 -104.945702 132 13813ft 323kts
15-Feb-18 12:54 39.985736 -104.857353 132 13083ft 316kts
15-Feb-18 12:55 39.917131 -104.809639 179 12115ft 273kts
15-Feb-18 12:56 39.849716 -104.807998 182 11189ft 251kts
15-Feb-18 12:57 39.781964 -104.809214 183 10983ft 241kts
15-Feb-18 12:58 39.717598 -104.807066 178 10718ft 233kts
15-Feb-18 12:59 39.654646 -104.800392 169 9808ft 227kts
15-Feb-18 13:00 39.626771 -104.734522 88 9044ft 237kts
15-Feb-18 13:01 39.670694 -104.681428 17 8300ft 220kts
15-Feb-18 13:02 39.725240 -104.662125 0 7344ft 188kts
15-Feb-18 13:03 39.773127 -104.661325 0 6453ft 177kts
15-Feb-18 13:04 39.817627 -104.660581 0 5664ft 149kts
15-Feb-18 13:05 39.842960 -104.660225 0 5442ft 32kts
15-Feb-18 13:06 39.847994 -104.660734 342 5442ft 0kts
15-Feb-18 13:07 39.850214 -104.662182 344 5442ft 22kts
15-Feb-18 13:08 39.858205 -104.662206 1 5442ft 32kts
15-Feb-18 13:09 39.861078 -104.664893 278 5442ft 13kts
15-Feb-18 13:10 39.861302 -104.671677 269 5442ft 10kts
15-Feb-18 13:11 39.862510 -104.672320 2 5442ft 0kts

Navigation Log

Ident Type
Flight plan parsing failed, navigation log unavailable